Time;durP1;ratioP1;P1;durP2;ratioP2;P2;SDS_P1;SDS_P2;PMS_P1;PMS_P2;Temp;Humidity;BMP_temperature;BMP_pressure;BME280_temperature;BME280_humidity;BME280_pressure;Samples;Min_cycle;Max_cycle;Signal;HPM_P1;HPM_P2
2023/01/29 00:01:13;;;;;;;3.33;3.03;;;;;;;;;;5116270;28;20275;-60
2023/01/29 00:03:41;;;;;;;3.38;3.15;;;;;;;;;;5116198;28;20190;-60
2023/01/29 00:06:10;;;;;;;2.83;2.63;;;;;;;;;;5116163;28;20189;-60
2023/01/29 00:08:37;;;;;;;4.20;3.90;;;;;;;;;;5116051;28;20185;-60
2023/01/29 00:11:04;;;;;;;4.05;3.75;;;;;;;;;;5116417;28;20185;-60
2023/01/29 00:13:33;;;;;;;3.97;3.65;;;;;;;;;;5116077;28;20458;-61
2023/01/29 00:16:00;;;;;;;4.13;3.70;;;;;;;;;;5116025;28;20223;-60
2023/01/29 00:18:28;;;;;;;3.58;3.28;;;;;;;;;;5116305;28;20189;-61
2023/01/29 00:20:55;;;;;;;4.57;4.18;;;;;;;;;;5115601;28;20186;-60
2023/01/29 00:23:23;;;;;;;4.72;4.25;;;;;;;;;;5115605;28;20534;-61
2023/01/29 00:25:50;;;;;;;3.58;3.38;;;;;;;;;;5115533;28;20571;-60
2023/01/29 00:28:17;;;;;;;3.83;3.45;;;;;;;;;;5115810;28;20193;-61
2023/01/29 00:30:44;;;;;;;4.13;3.67;;;;;;;;;;5115566;28;20204;-61
2023/01/29 00:33:12;;;;;;;7.03;4.05;;;;;;;;;;5115492;28;20195;-60
2023/01/29 00:35:39;;;;;;;3.80;3.55;;;;;;;;;;5115572;28;20228;-60
2023/01/29 00:38:06;;;;;;;4.80;4.00;;;;;;;;;;5115262;28;20195;-61
2023/01/29 00:46:05;;;;;;;4.93;4.32;;;;;;;;;;5115146;28;20236;-60
2023/01/29 00:48:32;;;;;;;4.75;4.20;;;;;;;;;;5114982;28;20840;-61
2023/01/29 00:50:59;;;;;;;5.90;4.80;;;;;;;;;;5115611;28;20194;-60
2023/01/29 00:53:26;;;;;;;5.40;4.20;;;;;;;;;;5115412;28;20752;-60
2023/01/29 00:55:54;;;;;;;8.68;4.43;;;;;;;;;;5115136;28;20710;-61
2023/01/29 00:58:27;;;;;;;4.28;3.95;;;;;;;;;;5114154;28;20186;-60
2023/01/29 01:00:54;;;;;;;4.53;4.13;;;;;;;;;;5114853;28;20201;-60
2023/01/29 01:03:20;;;;;;;4.72;4.22;;;;;;;;;;5115154;28;20232;-60
2023/01/29 01:05:47;;;;;;;5.72;5.13;;;;;;;;;;5114831;28;20329;-60
2023/01/29 01:11:01;;;;;;;6.00;5.45;;;;;;;;;;5114847;28;20189;-60
2023/01/29 01:13:28;;;;;;;7.35;5.15;;;;;;;;;;5114574;28;20188;-60
2023/01/29 01:15:54;;;;;;;7.03;5.03;;;;;;;;;;5114722;28;20188;-60
2023/01/29 01:18:22;;;;;;;6.10;5.50;;;;;;;;;;5114667;28;20284;-60
2023/01/29 01:20:50;;;;;;;6.65;5.97;;;;;;;;;;5114573;28;20201;-60
2023/01/29 01:23:17;;;;;;;5.85;5.30;;;;;;;;;;5114498;28;20207;-60
2023/01/29 01:25:44;;;;;;;8.00;6.90;;;;;;;;;;5114232;28;20226;-60
2023/01/29 01:28:13;;;;;;;5.72;5.22;;;;;;;;;;5114286;28;20559;-60
2023/01/29 01:30:39;;;;;;;7.10;5.95;;;;;;;;;;5114727;28;20540;-60
2023/01/29 01:33:06;;;;;;;6.10;5.50;;;;;;;;;;5114437;28;20652;-60
2023/01/29 01:35:33;;;;;;;6.35;5.57;;;;;;;;;;5114412;28;20185;-60
2023/01/29 01:38:01;;;;;;;7.38;5.95;;;;;;;;;;5114363;28;20713;-60
2023/01/29 01:40:27;;;;;;;6.20;5.60;;;;;;;;;;5114309;28;20651;-60
2023/01/29 01:42:55;;;;;;;8.60;6.72;;;;;;;;;;5114022;28;20220;-60
2023/01/29 01:45:25;;;;;;;7.47;6.18;;;;;;;;;;5114074;28;20233;-60
2023/01/29 01:47:55;;;;;;;7.15;6.55;;;;;;;;;;5114063;28;20647;-60
2023/01/29 01:50:25;;;;;;;6.60;6.00;;;;;;;;;;5114176;28;20196;-60
2023/01/29 01:52:53;;;;;;;8.27;7.00;;;;;;;;;;5114108;28;20195;-60
2023/01/29 01:55:22;;;;;;;7.57;6.88;;;;;;;;;;5113931;28;20196;-60
2023/01/29 01:57:52;;;;;;;9.52;7.55;;;;;;;;;;5114127;28;20275;-60
2023/01/29 02:00:20;;;;;;;7.47;6.55;;;;;;;;;;5114023;28;20196;-60
2023/01/29 02:11:06;;;;;;;9.88;8.00;;;;;;;;;;5113993;28;20200;-60
2023/01/29 02:13:33;;;;;;;8.55;6.97;;;;;;;;;;5113616;28;20196;-60
2023/01/29 02:16:00;;;;;;;8.80;6.75;;;;;;;;;;5113544;28;20620;-60
2023/01/29 02:18:28;;;;;;;7.88;7.13;;;;;;;;;;5113943;28;20188;-60
2023/01/29 02:21:05;;;;;;;10.43;6.10;;;;;;;;;;5113573;28;20275;-60
2023/01/29 02:23:53;;;;;;;8.13;6.88;;;;;;;;;;5113581;28;20266;-60
2023/01/29 02:26:25;;;;;;;8.45;7.28;;;;;;;;;;5106936;28;20212;-60
2023/01/29 02:28:56;;;;;;;8.25;7.40;;;;;;;;;;5113687;28;20184;-60
2023/01/29 02:31:28;;;;;;;10.43;8.13;;;;;;;;;;5113525;28;20190;-60
2023/01/29 02:33:57;;;;;;;11.00;7.47;;;;;;;;;;5113490;28;20196;-60
2023/01/29 02:36:27;;;;;;;7.97;7.15;;;;;;;;;;5113681;28;20200;-60
2023/01/29 02:39:00;;;;;;;8.02;7.10;;;;;;;;;;5113260;28;20671;-60
2023/01/29 02:41:30;;;;;;;9.98;7.35;;;;;;;;;;5113137;28;20637;-60
2023/01/29 02:44:04;;;;;;;9.05;8.02;;;;;;;;;;5113320;28;20196;-60
2023/01/29 02:46:35;;;;;;;10.52;7.30;;;;;;;;;;5113240;28;20224;-60
2023/01/29 02:49:06;;;;;;;8.25;7.45;;;;;;;;;;5113305;28;20190;-60
2023/01/29 02:51:37;;;;;;;8.75;7.53;;;;;;;;;;5113303;28;20724;-60
2023/01/29 02:54:05;;;;;;;8.30;7.50;;;;;;;;;;5113128;28;20200;-60
2023/01/29 02:56:37;;;;;;;12.40;7.28;;;;;;;;;;5112902;28;20779;-60
2023/01/29 02:59:07;;;;;;;9.80;7.90;;;;;;;;;;5113076;28;20195;-60
2023/01/29 03:01:36;;;;;;;8.23;7.43;;;;;;;;;;5112940;28;20305;-60
2023/01/29 03:04:04;;;;;;;8.70;7.88;;;;;;;;;;5112841;28;20189;-60
2023/01/29 03:06:33;;;;;;;8.98;8.07;;;;;;;;;;5112977;28;20221;-60
2023/01/29 03:09:01;;;;;;;7.60;6.72;;;;;;;;;;5113311;28;20186;-60
2023/01/29 03:11:31;;;;;;;8.07;7.28;;;;;;;;;;5112935;28;20556;-60
2023/01/29 03:14:00;;;;;;;9.25;8.15;;;;;;;;;;5112905;28;20189;-60
2023/01/29 03:16:32;;;;;;;9.98;7.72;;;;;;;;;;5112768;28;20186;-60
2023/01/29 03:19:02;;;;;;;10.93;8.80;;;;;;;;;;5113197;28;20193;-60
2023/01/29 03:32:37;;;;;;;9.13;8.23;;;;;;;;;;5116759;28;20551;-60
2023/01/29 03:35:05;;;;;;;9.95;7.45;;;;;;;;;;5116682;28;20281;-60
2023/01/29 03:37:34;;;;;;;8.48;7.47;;;;;;;;;;5116795;28;20201;-60
2023/01/29 03:40:02;;;;;;;12.85;8.35;;;;;;;;;;5116794;28;20193;-60
2023/01/29 03:42:33;;;;;;;10.85;8.23;;;;;;;;;;5116805;28;20193;-60
2023/01/29 03:45:06;;;;;;;11.02;7.40;;;;;;;;;;5116369;28;20216;-60
2023/01/29 03:47:39;;;;;;;10.85;8.38;;;;;;;;;;5116510;28;20184;-60
2023/01/29 03:50:10;;;;;;;11.48;8.25;;;;;;;;;;5116288;28;20203;-60
2023/01/29 03:52:41;;;;;;;10.55;7.53;;;;;;;;;;5116565;28;20635;-60
2023/01/29 03:55:11;;;;;;;10.25;8.15;;;;;;;;;;5116406;28;20283;-60
2023/01/29 03:57:40;;;;;;;8.55;7.65;;;;;;;;;;5116394;28;20640;-60
2023/01/29 04:00:11;;;;;;;8.85;7.93;;;;;;;;;;5116098;28;20295;-60
2023/01/29 04:02:42;;;;;;;12.52;8.20;;;;;;;;;;5116088;28;20644;-60
2023/01/29 04:05:13;;;;;;;11.07;8.77;;;;;;;;;;5116254;28;20209;-60
2023/01/29 04:07:41;;;;;;;10.20;9.10;;;;;;;;;;5116170;28;20203;-60
2023/01/29 04:10:09;;;;;;;13.85;10.10;;;;;;;;;;5115926;28;20191;-60
2023/01/29 04:12:38;;;;;;;11.05;9.10;;;;;;;;;;5115915;28;20188;-60
2023/01/29 04:15:06;;;;;;;10.07;8.27;;;;;;;;;;5116036;28;20275;-60
2023/01/29 04:17:37;;;;;;;11.68;9.45;;;;;;;;;;5115967;28;20278;-60
2023/01/29 04:20:05;;;;;;;11.43;8.80;;;;;;;;;;5115944;28;20190;-60
2023/01/29 04:22:34;;;;;;;11.27;8.60;;;;;;;;;;5115797;28;20192;-60
2023/01/29 04:25:07;;;;;;;11.27;8.85;;;;;;;;;;5115703;28;20275;-60
2023/01/29 04:27:41;;;;;;;10.18;8.80;;;;;;;;;;5115876;28;20217;-59
2023/01/29 04:30:14;;;;;;;10.32;8.50;;;;;;;;;;5116052;28;20193;-60
2023/01/29 04:32:46;;;;;;;10.73;9.05;;;;;;;;;;5115434;28;20313;-60
2023/01/29 04:35:18;;;;;;;11.00;8.80;;;;;;;;;;5115833;28;20228;-61
2023/01/29 04:37:56;;;;;;;10.35;8.15;;;;;;;;;;5115401;28;20188;-59
2023/01/29 04:40:26;;;;;;;10.90;8.50;;;;;;;;;;5115630;28;20200;-61
2023/01/29 04:43:02;;;;;;;12.45;10.18;;;;;;;;;;5115509;28;20527;-60
2023/01/29 04:45:34;;;;;;;10.82;8.52;;;;;;;;;;5115282;28;20224;-59
2023/01/29 04:48:08;;;;;;;9.77;8.57;;;;;;;;;;5115305;28;20189;-60
2023/01/29 04:50:37;;;;;;;10.48;9.35;;;;;;;;;;5115414;28;20189;-60
2023/01/29 04:53:08;;;;;;;10.05;8.00;;;;;;;;;;5115065;28;20189;-60
2023/01/29 04:55:39;;;;;;;14.65;10.40;;;;;;;;;;5115409;28;20193;-60
2023/01/29 04:58:09;;;;;;;11.50;9.65;;;;;;;;;;5115356;28;20197;-60
2023/01/29 05:00:39;;;;;;;11.50;9.90;;;;;;;;;;5114904;28;20646;-60
2023/01/29 05:03:08;;;;;;;11.90;9.35;;;;;;;;;;5115054;28;20189;-59
2023/01/29 05:05:35;;;;;;;14.60;10.10;;;;;;;;;;5114985;28;20217;-61
2023/01/29 05:08:03;;;;;;;11.50;10.30;;;;;;;;;;5114977;28;20195;-61
2023/01/29 05:10:31;;;;;;;10.60;9.38;;;;;;;;;;5114853;28;20186;-61
2023/01/29 05:13:00;;;;;;;12.48;10.52;;;;;;;;;;5114791;28;20190;-61
2023/01/29 05:15:29;;;;;;;14.30;10.30;;;;;;;;;;5115162;28;20189;-61
2023/01/29 05:18:01;;;;;;;10.88;9.23;;;;;;;;;;5114615;28;20667;-61
2023/01/29 05:20:31;;;;;;;12.77;9.68;;;;;;;;;;5114761;28;20277;-61
2023/01/29 05:22:58;;;;;;;15.13;10.77;;;;;;;;;;5114659;28;20185;-61
2023/01/29 05:25:26;;;;;;;11.95;10.38;;;;;;;;;;5114438;28;20195;-61
2023/01/29 05:28:03;;;;;;;12.63;10.68;;;;;;;;;;5114440;28;20193;-61
2023/01/29 05:30:30;;;;;;;12.02;10.27;;;;;;;;;;5114569;28;20215;-61
2023/01/29 05:32:57;;;;;;;11.38;10.05;;;;;;;;;;5114394;28;20277;-61
2023/01/29 05:35:24;;;;;;;11.73;10.52;;;;;;;;;;5114039;28;20632;-61
2023/01/29 05:37:51;;;;;;;12.43;10.98;;;;;;;;;;5114172;28;20189;-61
2023/01/29 05:40:18;;;;;;;12.80;10.57;;;;;;;;;;5114175;28;20188;-61
2023/01/29 05:42:45;;;;;;;11.45;9.60;;;;;;;;;;5114321;28;20194;-61
2023/01/29 05:45:13;;;;;;;11.25;9.98;;;;;;;;;;5113543;28;20581;-61
2023/01/29 05:47:40;;;;;;;13.30;11.68;;;;;;;;;;5114235;28;20221;-61
2023/01/29 05:50:08;;;;;;;13.70;10.07;;;;;;;;;;5114322;28;20306;-61
2023/01/29 05:52:34;;;;;;;14.20;10.27;;;;;;;;;;5114005;28;20185;-61
2023/01/29 05:55:01;;;;;;;13.18;10.32;;;;;;;;;;5114122;28;20185;-61
2023/01/29 05:57:28;;;;;;;14.65;11.57;;;;;;;;;;5114105;28;20196;-61
2023/01/29 05:59:55;;;;;;;15.40;11.85;;;;;;;;;;5114024;28;20191;-61
2023/01/29 06:02:24;;;;;;;13.23;10.90;;;;;;;;;;5113962;28;20274;-61
2023/01/29 06:04:51;;;;;;;13.48;11.10;;;;;;;;;;5113856;28;20185;-61
2023/01/29 06:07:18;;;;;;;13.32;11.32;;;;;;;;;;5113657;28;20218;-61
2023/01/29 06:09:45;;;;;;;16.67;11.40;;;;;;;;;;5113937;28;20190;-61
2023/01/29 06:12:12;;;;;;;17.05;12.15;;;;;;;;;;5114087;28;20196;-61
2023/01/29 06:14:39;;;;;;;13.80;11.25;;;;;;;;;;5113815;28;20224;-60
2023/01/29 06:17:06;;;;;;;15.55;12.05;;;;;;;;;;5113646;28;20568;-61
2023/01/29 06:19:34;;;;;;;14.63;11.88;;;;;;;;;;5113611;28;20193;-61
2023/01/29 06:22:01;;;;;;;13.88;12.25;;;;;;;;;;5113440;28;20188;-61
2023/01/29 06:24:28;;;;;;;15.65;11.48;;;;;;;;;;5113589;28;20553;-60
2023/01/29 06:26:55;;;;;;;15.93;11.60;;;;;;;;;;5113734;28;20224;-61
2023/01/29 06:29:22;;;;;;;13.45;11.00;;;;;;;;;;5113584;28;20202;-61
2023/01/29 06:31:49;;;;;;;15.40;11.70;;;;;;;;;;5113393;28;20216;-60
2023/01/29 06:34:16;;;;;;;17.30;13.07;;;;;;;;;;5113323;28;20195;-61
2023/01/29 06:36:44;;;;;;;15.45;11.95;;;;;;;;;;5113539;28;20200;-61
2023/01/29 06:39:11;;;;;;;20.10;12.68;;;;;;;;;;5113498;28;20225;-61
2023/01/29 06:41:38;;;;;;;16.30;13.48;;;;;;;;;;5113361;28;20243;-61
2023/01/29 06:44:05;;;;;;;17.90;12.23;;;;;;;;;;5113378;28;20627;-61
2023/01/29 06:46:32;;;;;;;18.10;12.57;;;;;;;;;;5113189;28;20228;-60
2023/01/29 06:49:00;;;;;;;17.60;12.70;;;;;;;;;;5113159;28;20552;-60
2023/01/29 06:51:27;;;;;;;18.83;12.93;;;;;;;;;;5113312;28;20576;-60
2023/01/29 06:53:55;;;;;;;17.30;12.10;;;;;;;;;;5113311;28;20280;-60
2023/01/29 06:56:22;;;;;;;17.77;13.02;;;;;;;;;;5113316;28;20645;-61
2023/01/29 06:58:49;;;;;;;19.65;14.43;;;;;;;;;;5117209;28;20195;-60
2023/01/29 07:01:16;;;;;;;16.55;13.18;;;;;;;;;;5117291;28;20212;-60
2023/01/29 07:03:43;;;;;;;15.82;12.57;;;;;;;;;;5117241;28;20189;-60
2023/01/29 07:06:10;;;;;;;18.73;14.30;;;;;;;;;;5117304;28;20213;-61
2023/01/29 07:08:37;;;;;;;18.83;13.10;;;;;;;;;;5117369;28;20185;-60
2023/01/29 07:11:07;;;;;;;17.13;12.93;;;;;;;;;;5117288;28;20186;-60
2023/01/29 07:13:34;;;;;;;19.23;13.38;;;;;;;;;;5117252;28;20195;-61
2023/01/29 07:16:01;;;;;;;17.48;13.02;;;;;;;;;;5117026;28;20272;-61
2023/01/29 07:18:29;;;;;;;17.98;13.45;;;;;;;;;;5117160;28;20185;-61
2023/01/29 07:20:56;;;;;;;17.58;13.35;;;;;;;;;;5117102;28;20197;-60
2023/01/29 07:23:23;;;;;;;19.50;14.13;;;;;;;;;;5117065;28;20220;-60
2023/01/29 07:25:50;;;;;;;15.63;12.45;;;;;;;;;;5116927;28;20548;-60
2023/01/29 07:28:19;;;;;;;18.25;13.65;;;;;;;;;;5116879;28;20625;-61
2023/01/29 07:30:46;;;;;;;22.63;13.32;;;;;;;;;;5116685;28;20217;-60
2023/01/29 07:33:13;;;;;;;22.85;14.80;;;;;;;;;;5116982;28;20185;-60
2023/01/29 07:35:41;;;;;;;18.52;13.40;;;;;;;;;;5116793;28;20196;-61
2023/01/29 07:38:08;;;;;;;19.42;13.73;;;;;;;;;;5116668;28;20193;-61
2023/01/29 07:40:35;;;;;;;18.35;14.20;;;;;;;;;;5116622;28;20558;-61
2023/01/29 07:43:03;;;;;;;18.85;12.63;;;;;;;;;;5116513;28;20710;-61
2023/01/29 07:45:33;;;;;;;30.10;13.88;;;;;;;;;;5116581;28;20214;-60
2023/01/29 07:48:00;;;;;;;21.65;15.00;;;;;;;;;;5116602;28;20575;-61
2023/01/29 07:50:28;;;;;;;19.48;13.50;;;;;;;;;;5116515;28;20185;-60
2023/01/29 07:52:55;;;;;;;14.32;12.25;;;;;;;;;;5116435;28;20684;-60
2023/01/29 07:55:22;;;;;;;15.68;12.55;;;;;;;;;;5116356;28;20196;-60
2023/01/29 07:57:48;;;;;;;15.52;11.73;;;;;;;;;;5116154;28;20575;-60
2023/01/29 08:00:16;;;;;;;16.13;10.95;;;;;;;;;;5116390;28;20261;-61
2023/01/29 08:02:44;;;;;;;17.20;13.00;;;;;;;;;;5116252;28;20272;-60
2023/01/29 08:05:11;;;;;;;17.80;13.77;;;;;;;;;;5116228;28;20598;-60
2023/01/29 08:07:38;;;;;;;18.52;12.98;;;;;;;;;;5115453;28;20224;-60
2023/01/29 08:10:05;;;;;;;17.90;12.82;;;;;;;;;;5115938;28;20208;-61
2023/01/29 08:12:32;;;;;;;17.88;13.38;;;;;;;;;;5115862;28;20196;-61
2023/01/29 08:14:59;;;;;;;21.05;13.55;;;;;;;;;;5116028;28;20275;-60
2023/01/29 08:17:26;;;;;;;17.80;13.75;;;;;;;;;;5115911;28;20196;-60
2023/01/29 08:19:54;;;;;;;19.38;14.38;;;;;;;;;;5115856;28;20205;-60
2023/01/29 08:22:21;;;;;;;23.15;16.17;;;;;;;;;;5115808;28;20644;-60
2023/01/29 08:24:48;;;;;;;19.60;15.57;;;;;;;;;;5115602;28;20190;-60
2023/01/29 08:27:15;;;;;;;16.88;12.80;;;;;;;;;;5115754;28;20221;-61
2023/01/29 08:29:42;;;;;;;20.45;15.40;;;;;;;;;;5115656;28;20254;-60
2023/01/29 08:32:10;;;;;;;18.45;14.13;;;;;;;;;;5115506;28;20227;-60
2023/01/29 08:34:37;;;;;;;18.70;13.75;;;;;;;;;;5115656;28;20546;-60
2023/01/29 08:37:05;;;;;;;19.48;14.13;;;;;;;;;;5115494;28;20283;-60
2023/01/29 08:39:32;;;;;;;19.40;13.25;;;;;;;;;;5115318;28;20187;-60
2023/01/29 08:41:59;;;;;;;19.10;14.10;;;;;;;;;;5115539;28;20187;-60
2023/01/29 08:44:26;;;;;;;17.60;13.45;;;;;;;;;;5115290;28;20193;-61
2023/01/29 08:46:53;;;;;;;19.27;14.15;;;;;;;;;;5115203;28;20218;-60
2023/01/29 08:49:20;;;;;;;32.67;18.35;;;;;;;;;;5115213;28;20185;-60
2023/01/29 08:51:47;;;;;;;34.20;20.70;;;;;;;;;;5115021;28;20189;-60
2023/01/29 08:54:15;;;;;;;25.70;15.48;;;;;;;;;;5115379;28;20556;-60
2023/01/29 08:56:42;;;;;;;31.05;18.98;;;;;;;;;;5115266;28;20555;-60
2023/01/29 08:59:10;;;;;;;30.42;17.65;;;;;;;;;;5114920;28;20185;-60
2023/01/29 09:01:37;;;;;;;24.75;15.68;;;;;;;;;;5114869;28;20192;-60
2023/01/29 09:04:04;;;;;;;23.90;15.70;;;;;;;;;;5114894;28;20194;-60
2023/01/29 09:06:30;;;;;;;27.05;16.92;;;;;;;;;;5114620;28;20556;-61
2023/01/29 09:08:57;;;;;;;26.95;18.38;;;;;;;;;;5115044;28;20186;-61
2023/01/29 09:11:26;;;;;;;23.65;14.85;;;;;;;;;;5114817;28;20200;-60
2023/01/29 09:13:53;;;;;;;26.63;16.75;;;;;;;;;;5114831;28;20552;-60
2023/01/29 09:16:19;;;;;;;22.75;14.43;;;;;;;;;;5114730;28;20193;-60
2023/01/29 09:18:46;;;;;;;30.85;19.42;;;;;;;;;;5114503;28;20194;-61
2023/01/29 09:21:13;;;;;;;27.63;17.15;;;;;;;;;;5113685;28;20184;-61
2023/01/29 09:23:40;;;;;;;24.73;15.95;;;;;;;;;;5114714;28;20191;-61
2023/01/29 09:26:07;;;;;;;24.00;15.27;;;;;;;;;;5114937;28;20363;-60
2023/01/29 09:28:36;;;;;;;26.75;17.65;;;;;;;;;;5114488;28;20220;-60
2023/01/29 09:31:03;;;;;;;22.10;16.08;;;;;;;;;;5114471;28;20194;-61
2023/01/29 09:33:31;;;;;;;29.48;17.30;;;;;;;;;;5114117;28;20659;-60
2023/01/29 09:35:58;;;;;;;19.08;14.45;;;;;;;;;;5114492;28;20284;-61
2023/01/29 09:38:25;;;;;;;33.40;20.00;;;;;;;;;;5114318;28;20211;-61
2023/01/29 09:40:56;;;;;;;32.33;20.10;;;;;;;;;;5114246;28;20200;-61
2023/01/29 09:43:24;;;;;;;34.35;20.85;;;;;;;;;;5114213;28;20429;-61
2023/01/29 09:45:54;;;;;;;43.50;25.65;;;;;;;;;;5114155;28;20585;-60
2023/01/29 09:48:23;;;;;;;42.70;25.80;;;;;;;;;;5113972;28;20228;-60
2023/01/29 09:50:53;;;;;;;27.05;17.90;;;;;;;;;;5113903;28;20271;-60
2023/01/29 09:53:22;;;;;;;33.45;19.75;;;;;;;;;;5114069;28;20215;-60
2023/01/29 09:55:50;;;;;;;27.35;18.23;;;;;;;;;;5113895;28;20239;-60
2023/01/29 09:58:19;;;;;;;20.35;14.88;;;;;;;;;;5113938;28;20193;-60
2023/01/29 10:00:51;;;;;;;16.98;13.85;;;;;;;;;;5113982;28;20556;-60
2023/01/29 10:03:28;;;;;;;23.83;16.17;;;;;;;;;;5114043;28;20275;-61
2023/01/29 10:06:01;;;;;;;21.42;17.13;;;;;;;;;;5113910;28;20300;-61
2023/01/29 10:08:50;;;;;;;19.83;15.02;;;;;;;;;;5113665;28;20674;-60
2023/01/29 10:11:22;;;;;;;19.88;15.15;;;;;;;;;;5113718;28;20285;-61
2023/01/29 10:13:52;;;;;;;18.52;14.18;;;;;;;;;;5114083;28;20285;-61
2023/01/29 10:16:26;;;;;;;25.30;16.17;;;;;;;;;;5114004;28;20194;-60
2023/01/29 10:19:10;;;;;;;21.55;13.95;;;;;;;;;;5113658;28;20203;-61
2023/01/29 10:21:50;;;;;;;19.17;14.68;;;;;;;;;;5113109;28;20201;-61
2023/01/29 10:24:21;;;;;;;21.88;16.55;;;;;;;;;;5113699;28;20671;-60
2023/01/29 10:26:48;;;;;;;18.27;14.57;;;;;;;;;;5113329;28;20696;-61
2023/01/29 10:29:18;;;;;;;28.20;19.05;;;;;;;;;;5113497;28;20186;-61
2023/01/29 10:31:47;;;;;;;19.88;15.10;;;;;;;;;;5113215;28;20186;-61
2023/01/29 10:34:17;;;;;;;18.75;14.10;;;;;;;;;;5113625;28;20651;-61
2023/01/29 10:36:46;;;;;;;18.58;13.48;;;;;;;;;;5113491;28;20190;-61
2023/01/29 10:39:17;;;;;;;18.23;14.10;;;;;;;;;;5113368;28;20228;-61
2023/01/29 10:42:06;;;;;;;16.45;13.15;;;;;;;;;;5113059;28;20186;-61
2023/01/29 10:44:44;;;;;;;17.40;12.68;;;;;;;;;;5106682;28;20217;-61
2023/01/29 10:47:20;;;;;;;18.35;13.00;;;;;;;;;;5113285;28;20203;-61
2023/01/29 10:49:57;;;;;;;17.73;12.85;;;;;;;;;;5113291;28;20277;-61
2023/01/29 10:52:38;;;;;;;19.45;14.57;;;;;;;;;;5113148;28;20534;-61
2023/01/29 10:55:15;;;;;;;20.63;17.00;;;;;;;;;;5113184;28;20630;-61
2023/01/29 10:57:50;;;;;;;22.15;15.95;;;;;;;;;;5113336;28;20554;-61
2023/01/29 11:00:20;;;;;;;17.08;13.48;;;;;;;;;;5113405;28;20194;-61
2023/01/29 11:02:48;;;;;;;14.85;13.05;;;;;;;;;;5113039;28;20190;-61
2023/01/29 11:05:20;;;;;;;15.80;12.90;;;;;;;;;;5112942;28;20201;-61
2023/01/29 11:07:50;;;;;;;16.35;11.60;;;;;;;;;;5113066;28;20220;-61
2023/01/29 11:10:19;;;;;;;16.23;13.07;;;;;;;;;;5112989;28;20190;-60
2023/01/29 11:12:46;;;;;;;16.50;12.52;;;;;;;;;;5113045;28;20197;-61
2023/01/29 11:15:16;;;;;;;17.50;12.60;;;;;;;;;;5112974;28;20192;-61
2023/01/29 11:17:58;;;;;;;17.98;11.85;;;;;;;;;;5112804;28;20197;-61
2023/01/29 11:20:29;;;;;;;14.65;12.27;;;;;;;;;;5112975;28;20189;-61
2023/01/29 11:22:58;;;;;;;11.63;10.43;;;;;;;;;;5112913;28;20294;-61
2023/01/29 11:25:26;;;;;;;16.27;10.30;;;;;;;;;;5112937;28;20194;-61
2023/01/29 11:27:54;;;;;;;28.30;23.95;;;;;;;;;;5112745;28;20215;-61
2023/01/29 11:30:23;;;;;;;21.75;17.45;;;;;;;;;;5112706;28;20556;-61
2023/01/29 11:32:51;;;;;;;13.73;11.10;;;;;;;;;;5112858;28;20198;-61
2023/01/29 11:35:23;;;;;;;12.70;10.57;;;;;;;;;;5112589;28;20195;-62
2023/01/29 11:37:50;;;;;;;15.30;11.55;;;;;;;;;;5112614;28;20284;-61
2023/01/29 11:40:35;;;;;;;14.48;10.82;;;;;;;;;;5112665;28;20190;-61
2023/01/29 11:43:19;;;;;;;12.90;10.30;;;;;;;;;;5113653;28;20186;-61
2023/01/29 11:45:46;;;;;;;13.10;9.50;;;;;;;;;;5116519;28;20308;-61
2023/01/29 11:48:15;;;;;;;12.13;10.60;;;;;;;;;;5116319;28;20317;-61
2023/01/29 11:50:42;;;;;;;11.70;9.93;;;;;;;;;;5116373;28;20552;-61
2023/01/29 11:53:22;;;;;;;11.90;9.93;;;;;;;;;;5116257;28;20190;-61
2023/01/29 11:55:51;;;;;;;13.57;9.60;;;;;;;;;;5116411;28;20276;-61
2023/01/29 11:58:20;;;;;;;15.40;10.98;;;;;;;;;;5116384;28;20281;-61
2023/01/29 12:00:49;;;;;;;12.45;10.52;;;;;;;;;;5116158;28;20212;-60
2023/01/29 12:03:17;;;;;;;14.70;10.05;;;;;;;;;;5116106;28;20196;-61
2023/01/29 12:05:54;;;;;;;11.05;9.95;;;;;;;;;;5116018;28;20228;-61
2023/01/29 12:08:22;;;;;;;10.98;9.43;;;;;;;;;;5116134;28;20217;-61
2023/01/29 12:10:50;;;;;;;12.27;9.50;;;;;;;;;;5116098;28;20212;-61
2023/01/29 12:13:26;;;;;;;15.05;9.88;;;;;;;;;;5115896;28;20193;-61
2023/01/29 12:16:11;;;;;;;12.85;9.98;;;;;;;;;;5115913;28;20197;-61
2023/01/29 12:18:40;;;;;;;13.45;10.65;;;;;;;;;;5116032;28;20193;-61
2023/01/29 12:21:12;;;;;;;11.57;9.52;;;;;;;;;;5115932;28;20197;-61
2023/01/29 12:23:41;;;;;;;15.57;10.27;;;;;;;;;;5115842;28;20186;-60
2023/01/29 12:26:14;;;;;;;14.32;9.05;;;;;;;;;;5115831;28;20200;-60
2023/01/29 12:28:45;;;;;;;18.63;10.70;;;;;;;;;;5115514;28;20245;-61
2023/01/29 12:31:27;;;;;;;12.93;11.27;;;;;;;;;;5115875;28;20285;-61
2023/01/29 12:33:57;;;;;;;11.43;9.93;;;;;;;;;;5115622;28;20186;-61
2023/01/29 12:36:26;;;;;;;14.30;10.30;;;;;;;;;;5115607;28;20186;-61
2023/01/29 12:38:54;;;;;;;11.98;10.00;;;;;;;;;;5115464;28;20201;-61
2023/01/29 12:41:29;;;;;;;11.32;8.52;;;;;;;;;;5115483;28;20535;-61
2023/01/29 12:43:58;;;;;;;10.52;9.13;;;;;;;;;;5115490;28;20624;-61
2023/01/29 12:46:27;;;;;;;12.27;9.88;;;;;;;;;;5115237;28;20229;-61
2023/01/29 12:48:56;;;;;;;12.68;9.65;;;;;;;;;;5115227;28;20222;-61
2023/01/29 12:51:25;;;;;;;14.52;9.57;;;;;;;;;;5115198;28;20197;-61
2023/01/29 12:53:55;;;;;;;14.63;9.98;;;;;;;;;;5115260;28;20205;-61
2023/01/29 12:56:27;;;;;;;10.60;8.55;;;;;;;;;;5115249;28;20206;-61
2023/01/29 12:58:56;;;;;;;11.55;9.38;;;;;;;;;;5115213;28;20196;-61
2023/01/29 13:01:27;;;;;;;13.15;8.80;;;;;;;;;;5115060;28;20548;-61
2023/01/29 13:03:56;;;;;;;11.57;9.63;;;;;;;;;;5115005;28;20230;-61
2023/01/29 13:06:26;;;;;;;11.90;9.70;;;;;;;;;;5115279;28;20741;-61
2023/01/29 13:08:55;;;;;;;10.20;9.13;;;;;;;;;;5114918;28;20222;-61
2023/01/29 13:11:24;;;;;;;11.68;8.93;;;;;;;;;;5114922;28;20239;-61
2023/01/29 13:13:53;;;;;;;11.48;9.43;;;;;;;;;;5114818;28;20200;-61
2023/01/29 13:16:23;;;;;;;11.00;9.40;;;;;;;;;;5114414;28;20730;-61
2023/01/29 13:18:54;;;;;;;11.70;10.13;;;;;;;;;;5114843;28;20279;-61
2023/01/29 13:21:22;;;;;;;11.23;9.30;;;;;;;;;;5114697;28;20222;-61
2023/01/29 13:23:51;;;;;;;10.95;8.35;;;;;;;;;;5114930;28;20281;-61
2023/01/29 13:26:19;;;;;;;12.60;10.35;;;;;;;;;;5114616;28;20216;-61
2023/01/29 13:28:46;;;;;;;14.70;9.93;;;;;;;;;;5114422;28;20568;-61
2023/01/29 13:31:15;;;;;;;11.80;9.43;;;;;;;;;;5114320;28;20715;-61
2023/01/29 13:33:44;;;;;;;11.23;8.93;;;;;;;;;;5114485;28;20815;-61
2023/01/29 13:36:15;;;;;;;14.15;9.75;;;;;;;;;;5114410;28;20226;-61
2023/01/29 13:38:43;;;;;;;10.60;8.25;;;;;;;;;;5114527;28;20204;-61
2023/01/29 13:41:11;;;;;;;12.05;8.32;;;;;;;;;;5114168;28;20605;-61
2023/01/29 13:43:40;;;;;;;12.45;9.05;;;;;;;;;;5114004;28;20263;-61
2023/01/29 13:46:08;;;;;;;11.65;8.80;;;;;;;;;;5114176;28;20232;-61
2023/01/29 13:48:41;;;;;;;10.50;8.15;;;;;;;;;;5114075;28;20557;-61
2023/01/29 13:51:15;;;;;;;12.80;9.07;;;;;;;;;;5114184;28;20194;-61
2023/01/29 13:53:42;;;;;;;10.23;7.93;;;;;;;;;;5113968;28;20225;-61
2023/01/29 13:56:34;;;;;;;13.07;8.77;;;;;;;;;;5113884;28;20202;-61
2023/01/29 13:59:02;;;;;;;10.57;8.35;;;;;;;;;;5093473;28;20192;-61
2023/01/29 14:01:56;;;;;;;10.35;8.65;;;;;;;;;;5113909;28;20191;-61
2023/01/29 14:04:25;;;;;;;10.68;8.00;;;;;;;;;;5066335;28;20187;-61
2023/01/29 14:06:54;;;;;;;11.48;7.97;;;;;;;;;;5113428;28;20247;-61
2023/01/29 14:09:31;;;;;;;10.40;8.33;;;;;;;;;;5113771;28;20689;-61
2023/01/29 14:11:58;;;;;;;11.57;8.00;;;;;;;;;;5113745;28;20538;-61
2023/01/29 14:14:44;;;;;;;10.23;8.00;;;;;;;;;;5113683;28;20194;-60
2023/01/29 14:17:11;;;;;;;9.45;7.80;;;;;;;;;;5113538;28;20190;-60
2023/01/29 14:19:37;;;;;;;11.43;8.57;;;;;;;;;;5113788;28;20197;-61
2023/01/29 14:22:06;;;;;;;10.23;7.65;;;;;;;;;;5113520;28;20194;-61
2023/01/29 14:24:34;;;;;;;11.18;9.25;;;;;;;;;;5113698;28;20276;-61
2023/01/29 14:27:02;;;;;;;11.38;8.65;;;;;;;;;;5113376;28;20235;-61
2023/01/29 14:29:30;;;;;;;11.30;8.90;;;;;;;;;;5113206;28;20213;-61
2023/01/29 14:31:59;;;;;;;10.15;8.80;;;;;;;;;;5113554;28;20197;-61
2023/01/29 14:34:28;;;;;;;11.02;8.68;;;;;;;;;;5113478;28;20185;-61
2023/01/29 14:36:56;;;;;;;13.00;8.95;;;;;;;;;;5113427;28;20549;-61
2023/01/29 14:39:35;;;;;;;12.52;9.60;;;;;;;;;;5113412;28;20696;-61
2023/01/29 14:42:04;;;;;;;16.42;10.15;;;;;;;;;;5113188;28;20201;-61
2023/01/29 14:44:58;;;;;;;11.68;8.60;;;;;;;;;;5113141;28;20309;-61
2023/01/29 14:47:39;;;;;;;10.15;8.57;;;;;;;;;;5113234;28;20229;-61
2023/01/29 14:50:21;;;;;;;14.27;9.95;;;;;;;;;;5112373;28;20225;-61
2023/01/29 14:52:49;;;;;;;12.85;9.30;;;;;;;;;;5113337;28;20193;-61
2023/01/29 14:55:24;;;;;;;13.73;10.48;;;;;;;;;;5113195;28;20191;-61
2023/01/29 14:57:51;;;;;;;12.65;10.02;;;;;;;;;;5113049;28;20204;-61
2023/01/29 15:00:23;;;;;;;12.25;10.02;;;;;;;;;;5113140;28;20557;-61
2023/01/29 15:02:51;;;;;;;13.20;9.48;;;;;;;;;;5112879;28;20243;-61
2023/01/29 15:05:20;;;;;;;14.13;11.18;;;;;;;;;;5113245;28;20250;-61
2023/01/29 15:07:49;;;;;;;15.77;10.65;;;;;;;;;;5113061;28;20191;-61